sensor_id;sensor_type;location;lat;lon;timestamp;temperature;humidity
10702;DHT22;5402;50.004;8.246;2022-12-07T00:00:13;3.30;99.90
10702;DHT22;5402;50.004;8.246;2022-12-07T00:02:40;3.30;99.90
10702;DHT22;5402;50.004;8.246;2022-12-07T00:05:07;3.30;99.90
10702;DHT22;5402;50.004;8.246;2022-12-07T00:07:34;3.30;99.90
10702;DHT22;5402;50.004;8.246;2022-12-07T00:10:03;3.30;99.90
10702;DHT22;5402;50.004;8.246;2022-12-07T00:12:29;3.30;99.90
10702;DHT22;5402;50.004;8.246;2022-12-07T00:14:56;3.30;99.90
10702;DHT22;5402;50.004;8.246;2022-12-07T00:17:23;3.40;99.90
10702;DHT22;5402;50.004;8.246;2022-12-07T00:19:50;3.30;99.90
10702;DHT22;5402;50.004;8.246;2022-12-07T00:22:16;3.30;99.90
10702;DHT22;5402;50.004;8.246;2022-12-07T00:24:43;3.40;99.90
10702;DHT22;5402;50.004;8.246;2022-12-07T00:27:11;3.30;99.90
10702;DHT22;5402;50.004;8.246;2022-12-07T00:29:38;3.40;99.90
10702;DHT22;5402;50.004;8.246;2022-12-07T00:32:05;3.50;99.90
10702;DHT22;5402;50.004;8.246;2022-12-07T00:34:31;3.50;99.90
10702;DHT22;5402;50.004;8.246;2022-12-07T00:36:58;3.50;99.90
10702;DHT22;5402;50.004;8.246;2022-12-07T00:39:25;3.50;99.90
10702;DHT22;5402;50.004;8.246;2022-12-07T00:41:52;3.50;99.90
10702;DHT22;5402;50.004;8.246;2022-12-07T00:44:20;3.50;99.90
10702;DHT22;5402;50.004;8.246;2022-12-07T00:46:47;3.50;99.90
10702;DHT22;5402;50.004;8.246;2022-12-07T00:49:14;3.60;99.90
10702;DHT22;5402;50.004;8.246;2022-12-07T00:51:40;3.60;99.90
10702;DHT22;5402;50.004;8.246;2022-12-07T00:54:07;3.60;99.90
10702;DHT22;5402;50.004;8.246;2022-12-07T00:56:34;3.50;99.90
10702;DHT22;5402;50.004;8.246;2022-12-07T00:59:03;3.50;99.90
10702;DHT22;5402;50.004;8.246;2022-12-07T01:01:32;3.50;99.90
10702;DHT22;5402;50.004;8.246;2022-12-07T01:04:00;3.50;99.90
10702;DHT22;5402;50.004;8.246;2022-12-07T01:06:28;3.50;99.90
10702;DHT22;5402;50.004;8.246;2022-12-07T01:08:55;3.50;99.90
10702;DHT22;5402;50.004;8.246;2022-12-07T01:11:24;3.50;99.90
10702;DHT22;5402;50.004;8.246;2022-12-07T01:13:51;3.50;99.90
10702;DHT22;5402;50.004;8.246;2022-12-07T01:16:19;3.50;99.90
10702;DHT22;5402;50.004;8.246;2022-12-07T01:18:50;3.50;99.90
10702;DHT22;5402;50.004;8.246;2022-12-07T01:21:19;3.50;99.90
10702;DHT22;5402;50.004;8.246;2022-12-07T01:23:47;3.50;99.90
10702;DHT22;5402;50.004;8.246;2022-12-07T01:26:16;3.50;99.90
10702;DHT22;5402;50.004;8.246;2022-12-07T01:28:43;3.50;99.90
10702;DHT22;5402;50.004;8.246;2022-12-07T01:31:12;3.60;99.90
10702;DHT22;5402;50.004;8.246;2022-12-07T01:33:41;3.60;99.90
10702;DHT22;5402;50.004;8.246;2022-12-07T01:36:16;3.60;99.90
10702;DHT22;5402;50.004;8.246;2022-12-07T01:38:44;3.60;99.90
10702;DHT22;5402;50.004;8.246;2022-12-07T01:41:11;3.60;99.90
10702;DHT22;5402;50.004;8.246;2022-12-07T01:44:13;3.60;99.90
10702;DHT22;5402;50.004;8.246;2022-12-07T01:46:40;3.60;99.90
10702;DHT22;5402;50.004;8.246;2022-12-07T01:49:12;3.70;99.90
10702;DHT22;5402;50.004;8.246;2022-12-07T01:51:43;3.70;99.90
10702;DHT22;5402;50.004;8.246;2022-12-07T01:54:13;3.70;99.90
10702;DHT22;5402;50.004;8.246;2022-12-07T01:56:45;3.80;99.90
10702;DHT22;5402;50.004;8.246;2022-12-07T01:59:13;3.80;99.90
10702;DHT22;5402;50.004;8.246;2022-12-07T02:01:41;3.70;99.90
10702;DHT22;5402;50.004;8.246;2022-12-07T02:04:08;3.80;99.90
10702;DHT22;5402;50.004;8.246;2022-12-07T02:06:35;3.80;99.90
10702;DHT22;5402;50.004;8.246;2022-12-07T02:09:04;3.80;99.90
10702;DHT22;5402;50.004;8.246;2022-12-07T02:11:31;3.80;99.90
10702;DHT22;5402;50.004;8.246;2022-12-07T02:13:58;3.80;99.90
10702;DHT22;5402;50.004;8.246;2022-12-07T02:16:30;3.90;99.90
10702;DHT22;5402;50.004;8.246;2022-12-07T02:19:17;3.90;99.90
10702;DHT22;5402;50.004;8.246;2022-12-07T02:21:53;3.90;99.90
10702;DHT22;5402;50.004;8.246;2022-12-07T02:24:48;3.90;99.90
10702;DHT22;5402;50.004;8.246;2022-12-07T02:27:45;3.80;99.90
10702;DHT22;5402;50.004;8.246;2022-12-07T02:30:15;3.80;99.90
10702;DHT22;5402;50.004;8.246;2022-12-07T02:32:49;3.80;99.90
10702;DHT22;5402;50.004;8.246;2022-12-07T02:35:19;3.80;99.90
10702;DHT22;5402;50.004;8.246;2022-12-07T02:38:02;3.80;99.90
10702;DHT22;5402;50.004;8.246;2022-12-07T02:40:34;3.90;99.90
10702;DHT22;5402;50.004;8.246;2022-12-07T02:43:06;3.90;99.90
10702;DHT22;5402;50.004;8.246;2022-12-07T02:45:38;3.90;99.90
10702;DHT22;5402;50.004;8.246;2022-12-07T02:48:06;3.90;99.90
10702;DHT22;5402;50.004;8.246;2022-12-07T02:50:33;3.90;99.90
10702;DHT22;5402;50.004;8.246;2022-12-07T02:53:00;3.90;99.90
10702;DHT22;5402;50.004;8.246;2022-12-07T02:55:32;3.90;99.90
10702;DHT22;5402;50.004;8.246;2022-12-07T02:58:21;3.90;99.90
10702;DHT22;5402;50.004;8.246;2022-12-07T03:01:01;3.90;99.90
10702;DHT22;5402;50.004;8.246;2022-12-07T03:03:31;3.90;99.90
10702;DHT22;5402;50.004;8.246;2022-12-07T03:06:06;3.90;99.90
10702;DHT22;5402;50.004;8.246;2022-12-07T03:08:42;4.00;99.90
10702;DHT22;5402;50.004;8.246;2022-12-07T03:11:14;4.00;99.90
10702;DHT22;5402;50.004;8.246;2022-12-07T03:13:47;4.00;99.90
10702;DHT22;5402;50.004;8.246;2022-12-07T03:16:19;4.00;99.90
10702;DHT22;5402;50.004;8.246;2022-12-07T03:18:49;4.00;99.90
10702;DHT22;5402;50.004;8.246;2022-12-07T03:21:21;4.00;99.90
10702;DHT22;5402;50.004;8.246;2022-12-07T03:23:52;4.10;99.90
10702;DHT22;5402;50.004;8.246;2022-12-07T03:26:23;4.10;99.90
10702;DHT22;5402;50.004;8.246;2022-12-07T03:28:55;4.10;99.90
10702;DHT22;5402;50.004;8.246;2022-12-07T03:31:28;4.10;99.90
10702;DHT22;5402;50.004;8.246;2022-12-07T03:34:01;4.10;99.90
10702;DHT22;5402;50.004;8.246;2022-12-07T03:36:34;4.10;99.90
10702;DHT22;5402;50.004;8.246;2022-12-07T03:39:07;4.20;99.90
10702;DHT22;5402;50.004;8.246;2022-12-07T03:41:39;4.20;99.90
10702;DHT22;5402;50.004;8.246;2022-12-07T03:44:06;4.30;99.90
10702;DHT22;5402;50.004;8.246;2022-12-07T03:46:41;4.30;99.90
10702;DHT22;5402;50.004;8.246;2022-12-07T03:49:14;4.30;99.90
10702;DHT22;5402;50.004;8.246;2022-12-07T03:51:48;4.30;99.90
10702;DHT22;5402;50.004;8.246;2022-12-07T03:54:20;4.30;99.90
10702;DHT22;5402;50.004;8.246;2022-12-07T03:56:49;4.40;99.90
10702;DHT22;5402;50.004;8.246;2022-12-07T03:59:17;4.30;99.90
10702;DHT22;5402;50.004;8.246;2022-12-07T04:01:51;4.40;99.90
10702;DHT22;5402;50.004;8.246;2022-12-07T04:04:19;4.40;99.90
10702;DHT22;5402;50.004;8.246;2022-12-07T04:06:46;4.40;99.90
10702;DHT22;5402;50.004;8.246;2022-12-07T04:09:12;4.40;99.90
10702;DHT22;5402;50.004;8.246;2022-12-07T04:11:40;4.40;99.90
10702;DHT22;5402;50.004;8.246;2022-12-07T04:14:07;4.40;99.90
10702;DHT22;5402;50.004;8.246;2022-12-07T04:16:49;4.40;99.90
10702;DHT22;5402;50.004;8.246;2022-12-07T04:19:17;4.40;99.90
10702;DHT22;5402;50.004;8.246;2022-12-07T04:21:44;4.50;99.90
10702;DHT22;5402;50.004;8.246;2022-12-07T04:24:12;4.40;99.90
10702;DHT22;5402;50.004;8.246;2022-12-07T04:26:38;4.50;99.90
10702;DHT22;5402;50.004;8.246;2022-12-07T04:29:05;4.50;99.90
10702;DHT22;5402;50.004;8.246;2022-12-07T04:31:32;4.60;99.90
10702;DHT22;5402;50.004;8.246;2022-12-07T04:34:00;4.60;99.90
10702;DHT22;5402;50.004;8.246;2022-12-07T04:36:27;4.60;99.90
10702;DHT22;5402;50.004;8.246;2022-12-07T04:38:54;4.60;99.90
10702;DHT22;5402;50.004;8.246;2022-12-07T04:41:21;4.60;99.90
10702;DHT22;5402;50.004;8.246;2022-12-07T04:43:53;4.60;99.90
10702;DHT22;5402;50.004;8.246;2022-12-07T04:46:20;4.60;99.90
10702;DHT22;5402;50.004;8.246;2022-12-07T04:48:47;4.60;99.90
10702;DHT22;5402;50.004;8.246;2022-12-07T04:51:16;4.60;99.90
10702;DHT22;5402;50.004;8.246;2022-12-07T04:53:44;4.60;99.90
10702;DHT22;5402;50.004;8.246;2022-12-07T04:56:11;4.60;99.90
10702;DHT22;5402;50.004;8.246;2022-12-07T04:58:38;4.60;99.90
10702;DHT22;5402;50.004;8.246;2022-12-07T05:01:05;4.60;99.90
10702;DHT22;5402;50.004;8.246;2022-12-07T05:03:31;4.60;99.90
10702;DHT22;5402;50.004;8.246;2022-12-07T05:05:58;4.60;99.90
10702;DHT22;5402;50.004;8.246;2022-12-07T05:08:26;4.50;99.90
10702;DHT22;5402;50.004;8.246;2022-12-07T05:10:53;4.60;99.90
10702;DHT22;5402;50.004;8.246;2022-12-07T05:13:20;4.60;99.90
10702;DHT22;5402;50.004;8.246;2022-12-07T05:15:46;4.60;99.90
10702;DHT22;5402;50.004;8.246;2022-12-07T05:18:13;4.50;99.90
10702;DHT22;5402;50.004;8.246;2022-12-07T05:20:40;4.50;99.90
10702;DHT22;5402;50.004;8.246;2022-12-07T05:23:07;4.50;99.90
10702;DHT22;5402;50.004;8.246;2022-12-07T05:25:35;4.50;99.90
10702;DHT22;5402;50.004;8.246;2022-12-07T05:28:02;4.50;99.90
10702;DHT22;5402;50.004;8.246;2022-12-07T05:30:29;4.60;99.90
10702;DHT22;5402;50.004;8.246;2022-12-07T05:32:56;4.50;99.90
10702;DHT22;5402;50.004;8.246;2022-12-07T05:35:23;4.60;99.90
10702;DHT22;5402;50.004;8.246;2022-12-07T05:37:50;4.60;99.90
10702;DHT22;5402;50.004;8.246;2022-12-07T05:40:17;4.60;99.90
10702;DHT22;5402;50.004;8.246;2022-12-07T05:42:45;4.70;99.90
10702;DHT22;5402;50.004;8.246;2022-12-07T05:45:12;4.70;99.90
10702;DHT22;5402;50.004;8.246;2022-12-07T05:47:39;4.70;99.90
10702;DHT22;5402;50.004;8.246;2022-12-07T05:50:06;4.70;99.90
10702;DHT22;5402;50.004;8.246;2022-12-07T05:52:33;4.70;99.90
10702;DHT22;5402;50.004;8.246;2022-12-07T05:55:00;4.80;99.90
10702;DHT22;5402;50.004;8.246;2022-12-07T05:57:28;4.80;99.90
10702;DHT22;5402;50.004;8.246;2022-12-07T05:59:56;4.80;99.90
10702;DHT22;5402;50.004;8.246;2022-12-07T06:02:22;4.80;99.90
10702;DHT22;5402;50.004;8.246;2022-12-07T06:04:48;4.80;99.90
10702;DHT22;5402;50.004;8.246;2022-12-07T06:07:16;4.70;99.90
10702;DHT22;5402;50.004;8.246;2022-12-07T06:09:43;4.80;99.90
10702;DHT22;5402;50.004;8.246;2022-12-07T06:12:11;4.80;99.90
10702;DHT22;5402;50.004;8.246;2022-12-07T06:14:57;4.80;99.90
10702;DHT22;5402;50.004;8.246;2022-12-07T06:17:24;4.70;99.90
10702;DHT22;5402;50.004;8.246;2022-12-07T06:19:51;4.80;99.90
10702;DHT22;5402;50.004;8.246;2022-12-07T06:22:18;4.80;99.90
10702;DHT22;5402;50.004;8.246;2022-12-07T06:24:45;4.70;99.90
10702;DHT22;5402;50.004;8.246;2022-12-07T06:27:11;4.80;99.90
10702;DHT22;5402;50.004;8.246;2022-12-07T06:29:38;4.80;99.90
10702;DHT22;5402;50.004;8.246;2022-12-07T06:32:06;4.80;99.90
10702;DHT22;5402;50.004;8.246;2022-12-07T06:34:33;4.80;99.90
10702;DHT22;5402;50.004;8.246;2022-12-07T06:37:00;4.80;99.90
10702;DHT22;5402;50.004;8.246;2022-12-07T06:39:28;4.70;99.90
10702;DHT22;5402;50.004;8.246;2022-12-07T06:41:55;4.70;99.90
10702;DHT22;5402;50.004;8.246;2022-12-07T06:44:23;4.70;99.90
10702;DHT22;5402;50.004;8.246;2022-12-07T06:46:50;4.70;99.90
10702;DHT22;5402;50.004;8.246;2022-12-07T06:49:18;4.60;99.90
10702;DHT22;5402;50.004;8.246;2022-12-07T06:51:45;4.50;99.90
10702;DHT22;5402;50.004;8.246;2022-12-07T06:54:14;4.50;99.90
10702;DHT22;5402;50.004;8.246;2022-12-07T06:56:41;4.50;99.90
10702;DHT22;5402;50.004;8.246;2022-12-07T06:59:08;4.50;99.90
10702;DHT22;5402;50.004;8.246;2022-12-07T07:01:36;4.50;99.90
10702;DHT22;5402;50.004;8.246;2022-12-07T07:04:02;4.70;99.90
10702;DHT22;5402;50.004;8.246;2022-12-07T07:06:31;4.50;99.90
10702;DHT22;5402;50.004;8.246;2022-12-07T07:08:58;4.50;99.90
10702;DHT22;5402;50.004;8.246;2022-12-07T07:11:24;4.50;99.90
10702;DHT22;5402;50.004;8.246;2022-12-07T07:13:51;4.50;99.90
10702;DHT22;5402;50.004;8.246;2022-12-07T07:16:19;4.50;99.90
10702;DHT22;5402;50.004;8.246;2022-12-07T07:18:46;4.50;99.90
10702;DHT22;5402;50.004;8.246;2022-12-07T07:21:12;4.50;99.90
10702;DHT22;5402;50.004;8.246;2022-12-07T07:23:40;4.50;99.90
10702;DHT22;5402;50.004;8.246;2022-12-07T07:26:07;4.60;99.90
10702;DHT22;5402;50.004;8.246;2022-12-07T07:28:34;4.50;99.90
10702;DHT22;5402;50.004;8.246;2022-12-07T07:31:01;4.60;99.90
10702;DHT22;5402;50.004;8.246;2022-12-07T07:33:27;4.60;99.90
10702;DHT22;5402;50.004;8.246;2022-12-07T07:35:54;4.60;99.90
10702;DHT22;5402;50.004;8.246;2022-12-07T07:38:21;4.70;99.90
10702;DHT22;5402;50.004;8.246;2022-12-07T07:40:49;4.70;99.90
10702;DHT22;5402;50.004;8.246;2022-12-07T07:43:16;4.70;99.90
10702;DHT22;5402;50.004;8.246;2022-12-07T07:45:42;4.70;99.90
10702;DHT22;5402;50.004;8.246;2022-12-07T07:48:10;4.70;99.90
10702;DHT22;5402;50.004;8.246;2022-12-07T07:50:37;4.70;99.90
10702;DHT22;5402;50.004;8.246;2022-12-07T07:53:04;4.70;99.90
10702;DHT22;5402;50.004;8.246;2022-12-07T07:55:30;4.70;99.90
10702;DHT22;5402;50.004;8.246;2022-12-07T07:57:58;4.70;99.90
10702;DHT22;5402;50.004;8.246;2022-12-07T08:00:25;4.70;99.90
10702;DHT22;5402;50.004;8.246;2022-12-07T08:02:52;4.70;99.90
10702;DHT22;5402;50.004;8.246;2022-12-07T08:05:19;4.70;99.90
10702;DHT22;5402;50.004;8.246;2022-12-07T08:07:56;4.80;99.90
10702;DHT22;5402;50.004;8.246;2022-12-07T08:10:34;4.80;99.90
10702;DHT22;5402;50.004;8.246;2022-12-07T08:13:03;4.80;99.90
10702;DHT22;5402;50.004;8.246;2022-12-07T08:15:41;4.70;99.90
10702;DHT22;5402;50.004;8.246;2022-12-07T08:18:08;4.70;99.90
10702;DHT22;5402;50.004;8.246;2022-12-07T08:20:36;4.70;99.90
10702;DHT22;5402;50.004;8.246;2022-12-07T08:23:05;4.80;99.90
10702;DHT22;5402;50.004;8.246;2022-12-07T08:25:32;4.80;99.90
10702;DHT22;5402;50.004;8.246;2022-12-07T08:27:59;4.90;99.90
10702;DHT22;5402;50.004;8.246;2022-12-07T08:30:28;4.90;99.90
10702;DHT22;5402;50.004;8.246;2022-12-07T08:32:55;5.00;99.90
10702;DHT22;5402;50.004;8.246;2022-12-07T08:35:23;5.00;99.90
10702;DHT22;5402;50.004;8.246;2022-12-07T08:37:49;5.00;99.90
10702;DHT22;5402;50.004;8.246;2022-12-07T08:40:17;5.00;99.90
10702;DHT22;5402;50.004;8.246;2022-12-07T08:42:47;5.10;99.90
10702;DHT22;5402;50.004;8.246;2022-12-07T08:45:16;5.20;99.90
10702;DHT22;5402;50.004;8.246;2022-12-07T08:47:46;5.40;99.90
10702;DHT22;5402;50.004;8.246;2022-12-07T08:50:14;5.50;99.90
10702;DHT22;5402;50.004;8.246;2022-12-07T08:52:41;5.40;99.90
10702;DHT22;5402;50.004;8.246;2022-12-07T08:55:10;5.60;99.90
10702;DHT22;5402;50.004;8.246;2022-12-07T08:57:37;5.70;99.90
10702;DHT22;5402;50.004;8.246;2022-12-07T09:00:05;5.70;99.90
10702;DHT22;5402;50.004;8.246;2022-12-07T09:02:32;5.60;99.90
10702;DHT22;5402;50.004;8.246;2022-12-07T09:05:01;5.60;99.90
10702;DHT22;5402;50.004;8.246;2022-12-07T09:07:30;5.60;99.90
10702;DHT22;5402;50.004;8.246;2022-12-07T09:09:58;5.60;99.90
10702;DHT22;5402;50.004;8.246;2022-12-07T09:12:25;5.70;99.90
10702;DHT22;5402;50.004;8.246;2022-12-07T09:14:52;5.50;99.90
10702;DHT22;5402;50.004;8.246;2022-12-07T09:17:19;5.60;99.90
10702;DHT22;5402;50.004;8.246;2022-12-07T09:19:45;5.50;99.90
10702;DHT22;5402;50.004;8.246;2022-12-07T09:22:13;5.50;99.90
10702;DHT22;5402;50.004;8.246;2022-12-07T09:24:40;5.70;99.90
10702;DHT22;5402;50.004;8.246;2022-12-07T09:27:07;5.80;99.90
10702;DHT22;5402;50.004;8.246;2022-12-07T09:29:34;5.90;99.90
10702;DHT22;5402;50.004;8.246;2022-12-07T09:32:01;6.00;99.90
10702;DHT22;5402;50.004;8.246;2022-12-07T09:34:30;6.10;99.90
10702;DHT22;5402;50.004;8.246;2022-12-07T09:36:57;6.20;99.90
10702;DHT22;5402;50.004;8.246;2022-12-07T09:39:25;6.30;99.90
10702;DHT22;5402;50.004;8.246;2022-12-07T09:41:52;6.20;99.90
10702;DHT22;5402;50.004;8.246;2022-12-07T09:44:23;6.20;99.90
10702;DHT22;5402;50.004;8.246;2022-12-07T09:46:50;6.20;99.90
10702;DHT22;5402;50.004;8.246;2022-12-07T09:49:20;6.30;99.90
10702;DHT22;5402;50.004;8.246;2022-12-07T09:51:47;6.40;99.90
10702;DHT22;5402;50.004;8.246;2022-12-07T09:54:16;6.40;99.90
10702;DHT22;5402;50.004;8.246;2022-12-07T09:56:44;6.30;99.90
10702;DHT22;5402;50.004;8.246;2022-12-07T09:59:15;6.30;99.90
10702;DHT22;5402;50.004;8.246;2022-12-07T10:01:44;6.00;99.90
10702;DHT22;5402;50.004;8.246;2022-12-07T10:04:14;5.90;99.90
10702;DHT22;5402;50.004;8.246;2022-12-07T10:06:43;5.90;99.90
10702;DHT22;5402;50.004;8.246;2022-12-07T10:09:11;6.20;99.90
10702;DHT22;5402;50.004;8.246;2022-12-07T10:11:58;6.40;99.90
10702;DHT22;5402;50.004;8.246;2022-12-07T10:14:27;6.20;99.90
10702;DHT22;5402;50.004;8.246;2022-12-07T10:16:55;6.20;99.90
10702;DHT22;5402;50.004;8.246;2022-12-07T10:19:25;6.10;99.90
10702;DHT22;5402;50.004;8.246;2022-12-07T10:22:03;6.00;99.90
10702;DHT22;5402;50.004;8.246;2022-12-07T10:24:30;6.00;99.90
10702;DHT22;5402;50.004;8.246;2022-12-07T10:26:59;6.20;99.90
10702;DHT22;5402;50.004;8.246;2022-12-07T10:29:29;6.50;99.90
10702;DHT22;5402;50.004;8.246;2022-12-07T10:31:58;6.50;99.90
10702;DHT22;5402;50.004;8.246;2022-12-07T10:34:28;6.50;99.90
10702;DHT22;5402;50.004;8.246;2022-12-07T10:37:15;6.60;99.90
10702;DHT22;5402;50.004;8.246;2022-12-07T10:39:43;6.50;99.90
10702;DHT22;5402;50.004;8.246;2022-12-07T10:42:20;6.50;99.90
10702;DHT22;5402;50.004;8.246;2022-12-07T10:44:48;6.60;99.90
10702;DHT22;5402;50.004;8.246;2022-12-07T10:47:29;6.60;99.90
10702;DHT22;5402;50.004;8.246;2022-12-07T10:50:14;6.70;99.90
10702;DHT22;5402;50.004;8.246;2022-12-07T10:55:47;6.90;99.90
10702;DHT22;5402;50.004;8.246;2022-12-07T11:01:18;7.00;99.90
10702;DHT22;5402;50.004;8.246;2022-12-07T11:03:55;7.00;99.90
10702;DHT22;5402;50.004;8.246;2022-12-07T11:06:31;7.10;99.90
10702;DHT22;5402;50.004;8.246;2022-12-07T11:09:14;7.00;99.90
10702;DHT22;5402;50.004;8.246;2022-12-07T11:11:49;7.00;99.90
10702;DHT22;5402;50.004;8.246;2022-12-07T11:14:25;7.10;99.90
10702;DHT22;5402;50.004;8.246;2022-12-07T11:16:56;7.20;99.90
10702;DHT22;5402;50.004;8.246;2022-12-07T11:19:43;7.30;99.90
10702;DHT22;5402;50.004;8.246;2022-12-07T11:22:20;7.40;99.90
10702;DHT22;5402;50.004;8.246;2022-12-07T11:24:56;7.40;99.90
10702;DHT22;5402;50.004;8.246;2022-12-07T11:27:33;7.50;99.90
10702;DHT22;5402;50.004;8.246;2022-12-07T11:30:14;7.60;99.90
10702;DHT22;5402;50.004;8.246;2022-12-07T11:32:56;7.50;99.90
10702;DHT22;5402;50.004;8.246;2022-12-07T11:35:34;7.40;99.90
10702;DHT22;5402;50.004;8.246;2022-12-07T11:38:12;7.50;99.90
10702;DHT22;5402;50.004;8.246;2022-12-07T11:40:44;7.20;99.90
10702;DHT22;5402;50.004;8.246;2022-12-07T11:43:18;7.10;99.90
10702;DHT22;5402;50.004;8.246;2022-12-07T11:45:53;7.20;99.90
10702;DHT22;5402;50.004;8.246;2022-12-07T11:48:30;7.10;99.90
10702;DHT22;5402;50.004;8.246;2022-12-07T11:50:59;6.90;99.90
10702;DHT22;5402;50.004;8.246;2022-12-07T11:53:34;6.90;99.90
10702;DHT22;5402;50.004;8.246;2022-12-07T11:56:06;6.70;99.90
10702;DHT22;5402;50.004;8.246;2022-12-07T11:58:48;6.80;99.90
10702;DHT22;5402;50.004;8.246;2022-12-07T12:01:37;6.80;99.90
10702;DHT22;5402;50.004;8.246;2022-12-07T12:04:19;6.70;99.90
10702;DHT22;5402;50.004;8.246;2022-12-07T12:06:49;6.40;99.90
10702;DHT22;5402;50.004;8.246;2022-12-07T12:09:21;6.40;99.90
10702;DHT22;5402;50.004;8.246;2022-12-07T12:12:05;6.20;99.90
10702;DHT22;5402;50.004;8.246;2022-12-07T12:14:44;6.10;99.90
10702;DHT22;5402;50.004;8.246;2022-12-07T12:17:24;5.90;99.90
10702;DHT22;5402;50.004;8.246;2022-12-07T12:20:00;6.10;99.90
10702;DHT22;5402;50.004;8.246;2022-12-07T12:22:34;6.20;99.90
10702;DHT22;5402;50.004;8.246;2022-12-07T12:25:05;6.20;99.90
10702;DHT22;5402;50.004;8.246;2022-12-07T12:27:34;6.20;99.90
10702;DHT22;5402;50.004;8.246;2022-12-07T12:30:04;6.20;99.90
10702;DHT22;5402;50.004;8.246;2022-12-07T12:32:38;6.10;99.90
10702;DHT22;5402;50.004;8.246;2022-12-07T12:35:28;6.20;99.90
10702;DHT22;5402;50.004;8.246;2022-12-07T12:38:31;6.20;99.90
10702;DHT22;5402;50.004;8.246;2022-12-07T12:40:59;6.10;99.90
10702;DHT22;5402;50.004;8.246;2022-12-07T12:43:47;6.20;99.90
10702;DHT22;5402;50.004;8.246;2022-12-07T12:46:50;6.40;99.90
10702;DHT22;5402;50.004;8.246;2022-12-07T12:52:58;6.60;99.90
10702;DHT22;5402;50.004;8.246;2022-12-07T12:58:44;6.50;99.90
10702;DHT22;5402;50.004;8.246;2022-12-07T13:01:36;6.70;99.90
10702;DHT22;5402;50.004;8.246;2022-12-07T13:04:25;6.60;99.90
10702;DHT22;5402;50.004;8.246;2022-12-07T13:06:52;6.70;99.90
10702;DHT22;5402;50.004;8.246;2022-12-07T13:09:22;6.70;99.90
10702;DHT22;5402;50.004;8.246;2022-12-07T13:11:50;6.80;99.90
10702;DHT22;5402;50.004;8.246;2022-12-07T13:14:55;7.00;99.90
10702;DHT22;5402;50.004;8.246;2022-12-07T13:17:59;7.00;99.90
10702;DHT22;5402;50.004;8.246;2022-12-07T13:20:46;6.90;99.90
10702;DHT22;5402;50.004;8.246;2022-12-07T13:23:18;7.10;99.90
10702;DHT22;5402;50.004;8.246;2022-12-07T13:25:49;7.20;99.90
10702;DHT22;5402;50.004;8.246;2022-12-07T13:28:18;7.10;99.90
10702;DHT22;5402;50.004;8.246;2022-12-07T13:30:59;7.20;99.90
10702;DHT22;5402;50.004;8.246;2022-12-07T13:33:28;7.20;99.90
10702;DHT22;5402;50.004;8.246;2022-12-07T13:35:55;7.30;99.90
10702;DHT22;5402;50.004;8.246;2022-12-07T13:38:28;7.30;99.90
10702;DHT22;5402;50.004;8.246;2022-12-07T13:41:17;7.20;99.90
10702;DHT22;5402;50.004;8.246;2022-12-07T13:43:49;7.10;99.90
10702;DHT22;5402;50.004;8.246;2022-12-07T13:46:19;7.00;99.90
10702;DHT22;5402;50.004;8.246;2022-12-07T13:48:48;7.00;99.90
10702;DHT22;5402;50.004;8.246;2022-12-07T13:51:18;7.00;99.90
10702;DHT22;5402;50.004;8.246;2022-12-07T13:53:50;7.00;99.90
10702;DHT22;5402;50.004;8.246;2022-12-07T13:56:20;7.00;99.90
10702;DHT22;5402;50.004;8.246;2022-12-07T13:58:47;7.00;99.90
10702;DHT22;5402;50.004;8.246;2022-12-07T14:01:14;7.00;99.90
10702;DHT22;5402;50.004;8.246;2022-12-07T14:03:43;7.00;99.90
10702;DHT22;5402;50.004;8.246;2022-12-07T14:06:30;6.90;99.90
10702;DHT22;5402;50.004;8.246;2022-12-07T14:09:17;7.00;99.90
10702;DHT22;5402;50.004;8.246;2022-12-07T14:11:45;7.00;99.90
10702;DHT22;5402;50.004;8.246;2022-12-07T14:14:17;6.90;99.90
10702;DHT22;5402;50.004;8.246;2022-12-07T14:16:58;7.10;99.90
10702;DHT22;5402;50.004;8.246;2022-12-07T14:19:48;7.10;99.90
10702;DHT22;5402;50.004;8.246;2022-12-07T14:22:25;7.10;99.90
10702;DHT22;5402;50.004;8.246;2022-12-07T14:24:59;7.30;99.90
10702;DHT22;5402;50.004;8.246;2022-12-07T14:27:31;7.20;99.90
10702;DHT22;5402;50.004;8.246;2022-12-07T14:29:59;7.20;99.90
10702;DHT22;5402;50.004;8.246;2022-12-07T14:32:28;7.10;99.90
10702;DHT22;5402;50.004;8.246;2022-12-07T14:34:59;7.00;99.90
10702;DHT22;5402;50.004;8.246;2022-12-07T14:37:27;7.10;99.90
10702;DHT22;5402;50.004;8.246;2022-12-07T14:39:54;7.00;99.90
10702;DHT22;5402;50.004;8.246;2022-12-07T14:42:26;6.90;99.90
10702;DHT22;5402;50.004;8.246;2022-12-07T14:44:54;6.80;99.90
10702;DHT22;5402;50.004;8.246;2022-12-07T14:47:20;6.70;99.90
10702;DHT22;5402;50.004;8.246;2022-12-07T14:49:48;6.60;99.90
10702;DHT22;5402;50.004;8.246;2022-12-07T14:52:19;6.60;99.90
10702;DHT22;5402;50.004;8.246;2022-12-07T14:54:47;6.70;99.90
10702;DHT22;5402;50.004;8.246;2022-12-07T14:57:13;6.60;99.90
10702;DHT22;5402;50.004;8.246;2022-12-07T14:59:40;6.60;99.90
10702;DHT22;5402;50.004;8.246;2022-12-07T15:02:11;6.50;99.90
10702;DHT22;5402;50.004;8.246;2022-12-07T15:04:38;6.50;99.90
10702;DHT22;5402;50.004;8.246;2022-12-07T15:07:09;6.40;99.90
10702;DHT22;5402;50.004;8.246;2022-12-07T15:09:38;6.40;99.90
10702;DHT22;5402;50.004;8.246;2022-12-07T15:12:05;6.30;99.90
10702;DHT22;5402;50.004;8.246;2022-12-07T15:14:32;6.30;99.90
10702;DHT22;5402;50.004;8.246;2022-12-07T15:16:58;6.20;99.90
10702;DHT22;5402;50.004;8.246;2022-12-07T15:19:25;5.70;99.90
10702;DHT22;5402;50.004;8.246;2022-12-07T15:21:53;5.50;99.90
10702;DHT22;5402;50.004;8.246;2022-12-07T15:24:20;5.30;99.90
10702;DHT22;5402;50.004;8.246;2022-12-07T15:26:48;5.20;99.90
10702;DHT22;5402;50.004;8.246;2022-12-07T15:29:15;5.20;99.90
10702;DHT22;5402;50.004;8.246;2022-12-07T15:31:42;5.20;99.90
10702;DHT22;5402;50.004;8.246;2022-12-07T15:34:09;5.20;99.90
10702;DHT22;5402;50.004;8.246;2022-12-07T15:36:36;5.20;99.90
10702;DHT22;5402;50.004;8.246;2022-12-07T15:39:03;5.20;99.90
10702;DHT22;5402;50.004;8.246;2022-12-07T15:41:30;5.10;99.90
10702;DHT22;5402;50.004;8.246;2022-12-07T15:43:58;5.10;99.90
10702;DHT22;5402;50.004;8.246;2022-12-07T15:46:42;4.90;99.90
10702;DHT22;5402;50.004;8.246;2022-12-07T15:49:11;4.90;99.90
10702;DHT22;5402;50.004;8.246;2022-12-07T15:51:39;4.90;99.90
10702;DHT22;5402;50.004;8.246;2022-12-07T15:54:07;5.00;99.90
10702;DHT22;5402;50.004;8.246;2022-12-07T15:56:34;5.00;99.90
10702;DHT22;5402;50.004;8.246;2022-12-07T15:59:02;4.90;99.90
10702;DHT22;5402;50.004;8.246;2022-12-07T16:01:28;5.00;99.90
10702;DHT22;5402;50.004;8.246;2022-12-07T16:03:57;4.90;99.90
10702;DHT22;5402;50.004;8.246;2022-12-07T16:06:24;4.90;99.90
10702;DHT22;5402;50.004;8.246;2022-12-07T16:08:52;4.80;99.90
10702;DHT22;5402;50.004;8.246;2022-12-07T16:11:19;4.80;99.90
10702;DHT22;5402;50.004;8.246;2022-12-07T16:13:45;4.80;99.90
10702;DHT22;5402;50.004;8.246;2022-12-07T16:16:15;4.70;99.90
10702;DHT22;5402;50.004;8.246;2022-12-07T16:18:43;4.70;99.90
10702;DHT22;5402;50.004;8.246;2022-12-07T16:21:10;4.70;99.90
10702;DHT22;5402;50.004;8.246;2022-12-07T16:23:37;4.60;99.90
10702;DHT22;5402;50.004;8.246;2022-12-07T16:26:06;4.60;99.90
10702;DHT22;5402;50.004;8.246;2022-12-07T16:28:33;4.50;99.90
10702;DHT22;5402;50.004;8.246;2022-12-07T16:31:01;4.40;99.90
10702;DHT22;5402;50.004;8.246;2022-12-07T16:33:30;4.40;99.90
10702;DHT22;5402;50.004;8.246;2022-12-07T16:35:58;4.40;99.90